Lincoln, Rhode Island
Current Conditions -  °F | °C
As of 12:53 AM on Wednesday 26 Nov 2014 (Local Time) from KUUU Reporting Station
Clear Clear  
Wind Chill: 50°   Ceiling: Unl
Heat Index: 50°   Visibility: 10mi
Dew Point: 32°   Wind: 3mph
Humidity: 50%   Direction: 310°NW
Pressure: 30.13"   Gusts: NA
Location:  41.54°N, 71.25°W
Report Text: KUUU 260553Z AUTO 31003KT 10SM CLR 10/00 A3013 RMK AO2 SLP201 T01000000 10117 20100 50013
Loading
Personal Weather Stations






























Interactive Weather Map New forecast layout! Learn more

10-Day Weather Forecast

Advertisements
Track Severe Weather on mobile